sensor_id;sensor_type;location;lat;lon;timestamp;P1;durP1;ratioP1;P2;durP2;ratioP2
39782;SDS011;25462;51.164;17.100;2022-10-31T00:00:04;2.10;;;1.20;;
39782;SDS011;25462;51.164;17.100;2022-10-31T00:05:34;1.50;;;1.40;;
39782;SDS011;25462;51.164;17.100;2022-10-31T00:10:38;1.00;;;0.80;;
39782;SDS011;25462;51.164;17.100;2022-10-31T00:15:43;3.70;;;2.40;;
39782;SDS011;25462;51.164;17.100;2022-10-31T00:20:46;1.40;;;1.30;;
39782;SDS011;25462;51.164;17.100;2022-10-31T00:25:51;1.70;;;1.20;;
39782;SDS011;25462;51.164;17.100;2022-10-31T00:31:02;1.40;;;0.90;;
39782;SDS011;25462;51.164;17.100;2022-10-31T00:36:10;2.30;;;1.20;;
39782;SDS011;25462;51.164;17.100;2022-10-31T00:41:16;1.80;;;1.60;;
39782;SDS011;25462;51.164;17.100;2022-10-31T00:46:22;1.90;;;1.30;;
39782;SDS011;25462;51.164;17.100;2022-10-31T00:51:26;5.90;;;1.30;;
39782;SDS011;25462;51.164;17.100;2022-10-31T00:56:29;0.60;;;0.60;;
39782;SDS011;25462;51.164;17.100;2022-10-31T01:01:33;3.40;;;1.10;;
39782;SDS011;25462;51.164;17.100;2022-10-31T01:06:37;3.20;;;1.20;;
39782;SDS011;25462;51.164;17.100;2022-10-31T01:11:40;0.70;;;0.70;;
39782;SDS011;25462;51.164;17.100;2022-10-31T01:16:44;1.00;;;1.00;;
39782;SDS011;25462;51.164;17.100;2022-10-31T01:21:49;0.20;;;0.20;;
39782;SDS011;25462;51.164;17.100;2022-10-31T01:26:53;1.50;;;1.20;;
39782;SDS011;25462;51.164;17.100;2022-10-31T01:31:56;3.70;;;2.60;;
39782;SDS011;25462;51.164;17.100;2022-10-31T01:37:00;4.60;;;1.30;;
39782;SDS011;25462;51.164;17.100;2022-10-31T01:42:03;3.10;;;1.20;;
39782;SDS011;25462;51.164;17.100;2022-10-31T01:47:14;3.80;;;2.20;;
39782;SDS011;25462;51.164;17.100;2022-10-31T01:57:25;3.80;;;0.60;;
39782;SDS011;25462;51.164;17.100;2022-10-31T02:02:29;1.10;;;1.00;;
39782;SDS011;25462;51.164;17.100;2022-10-31T02:07:36;4.40;;;1.20;;
39782;SDS011;25462;51.164;17.100;2022-10-31T02:12:45;0.60;;;0.60;;
39782;SDS011;25462;51.164;17.100;2022-10-31T02:17:50;2.10;;;1.90;;
39782;SDS011;25462;51.164;17.100;2022-10-31T02:23:17;1.90;;;0.60;;
39782;SDS011;25462;51.164;17.100;2022-10-31T02:33:53;1.50;;;1.20;;
39782;SDS011;25462;51.164;17.100;2022-10-31T02:39:08;1.30;;;0.90;;
39782;SDS011;25462;51.164;17.100;2022-10-31T02:49:42;1.50;;;0.60;;
39782;SDS011;25462;51.164;17.100;2022-10-31T02:54:51;1.30;;;1.30;;
39782;SDS011;25462;51.164;17.100;2022-10-31T02:59:57;0.90;;;0.70;;
39782;SDS011;25462;51.164;17.100;2022-10-31T03:15:59;2.60;;;2.40;;
39782;SDS011;25462;51.164;17.100;2022-10-31T03:21:12;0.90;;;0.80;;
39782;SDS011;25462;51.164;17.100;2022-10-31T03:26:17;1.50;;;1.50;;
39782;SDS011;25462;51.164;17.100;2022-10-31T03:31:23;1.60;;;1.40;;
39782;SDS011;25462;51.164;17.100;2022-10-31T03:36:30;1.40;;;1.30;;
39782;SDS011;25462;51.164;17.100;2022-10-31T03:41:40;2.40;;;1.40;;
39782;SDS011;25462;51.164;17.100;2022-10-31T03:46:48;1.20;;;1.20;;
39782;SDS011;25462;51.164;17.100;2022-10-31T03:51:55;0.90;;;0.90;;
39782;SDS011;25462;51.164;17.100;2022-10-31T03:57:37;1.80;;;1.10;;
39782;SDS011;25462;51.164;17.100;2022-10-31T04:08:21;3.30;;;1.90;;
39782;SDS011;25462;51.164;17.100;2022-10-31T04:13:29;3.10;;;1.70;;
39782;SDS011;25462;51.164;17.100;2022-10-31T04:18:42;2.20;;;2.00;;
39782;SDS011;25462;51.164;17.100;2022-10-31T04:23:47;1.30;;;1.30;;
39782;SDS011;25462;51.164;17.100;2022-10-31T04:28:59;1.90;;;1.80;;
39782;SDS011;25462;51.164;17.100;2022-10-31T04:34:03;2.50;;;2.30;;
39782;SDS011;25462;51.164;17.100;2022-10-31T04:39:06;2.00;;;1.90;;
39782;SDS011;25462;51.164;17.100;2022-10-31T04:44:17;6.30;;;2.40;;
39782;SDS011;25462;51.164;17.100;2022-10-31T04:49:23;2.60;;;1.50;;
39782;SDS011;25462;51.164;17.100;2022-10-31T04:54:28;1.50;;;1.40;;
39782;SDS011;25462;51.164;17.100;2022-10-31T05:00:11;2.80;;;1.80;;
39782;SDS011;25462;51.164;17.100;2022-10-31T05:05:25;0.70;;;0.60;;
39782;SDS011;25462;51.164;17.100;2022-10-31T05:10:30;2.50;;;1.70;;
39782;SDS011;25462;51.164;17.100;2022-10-31T05:15:35;0.70;;;0.70;;
39782;SDS011;25462;51.164;17.100;2022-10-31T05:20:57;1.10;;;1.10;;
39782;SDS011;25462;51.164;17.100;2022-10-31T05:26:11;2.40;;;1.40;;
39782;SDS011;25462;51.164;17.100;2022-10-31T05:31:15;1.00;;;1.00;;
39782;SDS011;25462;51.164;17.100;2022-10-31T05:36:19;15.50;;;3.40;;
39782;SDS011;25462;51.164;17.100;2022-10-31T05:41:29;4.40;;;2.40;;
39782;SDS011;25462;51.164;17.100;2022-10-31T05:46:47;3.90;;;2.20;;
39782;SDS011;25462;51.164;17.100;2022-10-31T05:52:10;2.50;;;2.30;;
39782;SDS011;25462;51.164;17.100;2022-10-31T05:57:19;1.30;;;1.30;;
39782;SDS011;25462;51.164;17.100;2022-10-31T06:02:23;4.50;;;2.30;;
39782;SDS011;25462;51.164;17.100;2022-10-31T06:07:59;6.70;;;2.50;;
39782;SDS011;25462;51.164;17.100;2022-10-31T06:13:04;1.00;;;1.00;;
39782;SDS011;25462;51.164;17.100;2022-10-31T06:18:15;2.30;;;1.90;;
39782;SDS011;25462;51.164;17.100;2022-10-31T06:23:22;2.50;;;2.30;;
39782;SDS011;25462;51.164;17.100;2022-10-31T06:28:29;5.40;;;2.50;;
39782;SDS011;25462;51.164;17.100;2022-10-31T06:33:45;2.50;;;2.10;;
39782;SDS011;25462;51.164;17.100;2022-10-31T06:38:50;6.40;;;3.10;;
39782;SDS011;25462;51.164;17.100;2022-10-31T06:43:55;2.40;;;2.20;;
39782;SDS011;25462;51.164;17.100;2022-10-31T06:49:18;1.50;;;1.40;;
39782;SDS011;25462;51.164;17.100;2022-10-31T06:54:28;0.90;;;0.90;;
39782;SDS011;25462;51.164;17.100;2022-10-31T06:59:33;2.50;;;2.30;;
39782;SDS011;25462;51.164;17.100;2022-10-31T07:04:51;1.20;;;1.20;;
39782;SDS011;25462;51.164;17.100;2022-10-31T07:09:54;2.20;;;1.10;;
39782;SDS011;25462;51.164;17.100;2022-10-31T07:15:14;1.90;;;1.80;;
39782;SDS011;25462;51.164;17.100;2022-10-31T07:20:18;24.90;;;3.50;;
39782;SDS011;25462;51.164;17.100;2022-10-31T07:25:22;2.60;;;1.80;;
39782;SDS011;25462;51.164;17.100;2022-10-31T07:30:40;8.30;;;1.50;;
39782;SDS011;25462;51.164;17.100;2022-10-31T07:35:47;0.50;;;0.50;;
39782;SDS011;25462;51.164;17.100;2022-10-31T07:41:06;7.00;;;1.70;;
39782;SDS011;25462;51.164;17.100;2022-10-31T07:46:15;1.40;;;1.30;;
39782;SDS011;25462;51.164;17.100;2022-10-31T07:51:38;3.50;;;2.00;;
39782;SDS011;25462;51.164;17.100;2022-10-31T07:57:07;1.30;;;1.10;;
39782;SDS011;25462;51.164;17.100;2022-10-31T08:02:11;3.40;;;1.60;;
39782;SDS011;25462;51.164;17.100;2022-10-31T08:07:25;1.50;;;1.40;;
39782;SDS011;25462;51.164;17.100;2022-10-31T08:12:33;1.30;;;1.10;;
39782;SDS011;25462;51.164;17.100;2022-10-31T08:17:42;1.80;;;1.70;;
39782;SDS011;25462;51.164;17.100;2022-10-31T08:22:52;2.10;;;2.00;;
39782;SDS011;25462;51.164;17.100;2022-10-31T08:28:11;3.90;;;1.20;;
39782;SDS011;25462;51.164;17.100;2022-10-31T08:33:25;6.80;;;1.80;;
39782;SDS011;25462;51.164;17.100;2022-10-31T08:39:09;7.40;;;3.40;;
39782;SDS011;25462;51.164;17.100;2022-10-31T08:44:16;2.00;;;1.90;;
39782;SDS011;25462;51.164;17.100;2022-10-31T08:49:20;4.40;;;2.40;;
39782;SDS011;25462;51.164;17.100;2022-10-31T08:54:24;2.30;;;2.10;;
39782;SDS011;25462;51.164;17.100;2022-10-31T08:59:30;3.30;;;2.20;;
39782;SDS011;25462;51.164;17.100;2022-10-31T09:04:52;3.70;;;1.50;;
39782;SDS011;25462;51.164;17.100;2022-10-31T09:10:01;3.10;;;2.20;;
39782;SDS011;25462;51.164;17.100;2022-10-31T09:15:10;1.20;;;1.20;;
39782;SDS011;25462;51.164;17.100;2022-10-31T09:20:26;0.80;;;0.80;;
39782;SDS011;25462;51.164;17.100;2022-10-31T09:25:45;1.20;;;0.50;;
39782;SDS011;25462;51.164;17.100;2022-10-31T09:31:11;2.20;;;1.00;;
39782;SDS011;25462;51.164;17.100;2022-10-31T09:36:43;1.00;;;0.90;;
39782;SDS011;25462;51.164;17.100;2022-10-31T09:58:25;2.80;;;2.60;;
39782;SDS011;25462;51.164;17.100;2022-10-31T10:09:07;1.50;;;1.40;;
39782;SDS011;25462;51.164;17.100;2022-10-31T10:30:39;0.70;;;0.70;;
39782;SDS011;25462;51.164;17.100;2022-10-31T10:41:10;0.50;;;0.50;;
39782;SDS011;25462;51.164;17.100;2022-10-31T10:46:32;2.70;;;1.00;;
39782;SDS011;25462;51.164;17.100;2022-10-31T11:02:46;1.60;;;0.80;;
39782;SDS011;25462;51.164;17.100;2022-10-31T11:07:51;2.70;;;1.60;;
39782;SDS011;25462;51.164;17.100;2022-10-31T11:13:00;1.40;;;1.30;;
39782;SDS011;25462;51.164;17.100;2022-10-31T11:18:19;1.00;;;1.00;;
39782;SDS011;25462;51.164;17.100;2022-10-31T11:23:25;1.10;;;0.80;;
39782;SDS011;25462;51.164;17.100;2022-10-31T11:28:31;1.50;;;1.00;;
39782;SDS011;25462;51.164;17.100;2022-10-31T11:38:51;0.80;;;0.70;;
39782;SDS011;25462;51.164;17.100;2022-10-31T11:44:01;16.20;;;0.60;;
39782;SDS011;25462;51.164;17.100;2022-10-31T11:54:50;1.20;;;0.80;;
39782;SDS011;25462;51.164;17.100;2022-10-31T11:59:59;0.10;;;0.10;;
39782;SDS011;25462;51.164;17.100;2022-10-31T12:05:24;0.80;;;0.80;;
39782;SDS011;25462;51.164;17.100;2022-10-31T12:27:36;0.50;;;0.50;;
39782;SDS011;25462;51.164;17.100;2022-10-31T12:54:18;0.10;;;0.10;;
39782;SDS011;25462;51.164;17.100;2022-10-31T13:04:42;1.60;;;1.20;;
39782;SDS011;25462;51.164;17.100;2022-10-31T13:10:35;0.80;;;0.80;;
39782;SDS011;25462;51.164;17.100;2022-10-31T13:15:49;0.40;;;0.40;;
39782;SDS011;25462;51.164;17.100;2022-10-31T13:21:48;0.90;;;0.80;;
39782;SDS011;25462;51.164;17.100;2022-10-31T13:26:56;0.70;;;0.70;;
39782;SDS011;25462;51.164;17.100;2022-10-31T13:32:08;1.50;;;1.20;;
39782;SDS011;25462;51.164;17.100;2022-10-31T14:04:23;0.50;;;0.50;;
39782;SDS011;25462;51.164;17.100;2022-10-31T14:09:36;0.60;;;0.30;;
39782;SDS011;25462;51.164;17.100;2022-10-31T14:14:49;1.40;;;1.30;;
39782;SDS011;25462;51.164;17.100;2022-10-31T14:20:21;0.60;;;0.60;;
39782;SDS011;25462;51.164;17.100;2022-10-31T14:25:42;0.50;;;0.40;;
39782;SDS011;25462;51.164;17.100;2022-10-31T14:31:01;0.90;;;0.90;;
39782;SDS011;25462;51.164;17.100;2022-10-31T14:36:50;1.00;;;1.00;;
39782;SDS011;25462;51.164;17.100;2022-10-31T14:53:36;0.40;;;0.40;;
39782;SDS011;25462;51.164;17.100;2022-10-31T14:59:19;0.60;;;0.40;;
39782;SDS011;25462;51.164;17.100;2022-10-31T15:04:36;0.20;;;0.20;;
39782;SDS011;25462;51.164;17.100;2022-10-31T15:10:04;0.10;;;0.10;;
39782;SDS011;25462;51.164;17.100;2022-10-31T15:15:23;0.00;;;0.00;;
39782;SDS011;25462;51.164;17.100;2022-10-31T15:20:35;0.60;;;0.50;;
39782;SDS011;25462;51.164;17.100;2022-10-31T15:25:41;2.80;;;0.40;;
39782;SDS011;25462;51.164;17.100;2022-10-31T15:30:55;1.60;;;0.40;;
39782;SDS011;25462;51.164;17.100;2022-10-31T15:36:00;0.30;;;0.30;;
39782;SDS011;25462;51.164;17.100;2022-10-31T15:47:12;0.30;;;0.30;;
39782;SDS011;25462;51.164;17.100;2022-10-31T15:58:13;5.30;;;3.70;;
39782;SDS011;25462;51.164;17.100;2022-10-31T16:03:33;3.00;;;2.70;;
39782;SDS011;25462;51.164;17.100;2022-10-31T16:09:23;1.40;;;1.30;;
39782;SDS011;25462;51.164;17.100;2022-10-31T16:14:35;7.80;;;2.80;;
39782;SDS011;25462;51.164;17.100;2022-10-31T16:25:10;2.80;;;2.50;;
39782;SDS011;25462;51.164;17.100;2022-10-31T16:30:27;3.20;;;2.30;;
39782;SDS011;25462;51.164;17.100;2022-10-31T16:35:37;2.30;;;2.10;;
39782;SDS011;25462;51.164;17.100;2022-10-31T16:40:42;2.70;;;2.10;;
39782;SDS011;25462;51.164;17.100;2022-10-31T16:45:52;3.30;;;1.70;;
39782;SDS011;25462;51.164;17.100;2022-10-31T16:50:57;6.10;;;1.90;;
39782;SDS011;25462;51.164;17.100;2022-10-31T16:56:23;6.60;;;2.80;;
39782;SDS011;25462;51.164;17.100;2022-10-31T17:01:32;5.30;;;2.90;;
39782;SDS011;25462;51.164;17.100;2022-10-31T17:06:44;4.20;;;3.90;;
39782;SDS011;25462;51.164;17.100;2022-10-31T17:11:51;9.50;;;4.60;;
39782;SDS011;25462;51.164;17.100;2022-10-31T17:16:56;5.80;;;2.80;;
39782;SDS011;25462;51.164;17.100;2022-10-31T17:22:01;3.30;;;3.00;;
39782;SDS011;25462;51.164;17.100;2022-10-31T17:27:12;3.50;;;3.20;;
39782;SDS011;25462;51.164;17.100;2022-10-31T17:32:18;9.90;;;4.30;;
39782;SDS011;25462;51.164;17.100;2022-10-31T17:37:25;5.10;;;4.10;;
39782;SDS011;25462;51.164;17.100;2022-10-31T17:42:31;6.80;;;4.50;;
39782;SDS011;25462;51.164;17.100;2022-10-31T17:47:38;6.30;;;4.20;;
39782;SDS011;25462;51.164;17.100;2022-10-31T17:52:49;8.50;;;3.50;;
39782;SDS011;25462;51.164;17.100;2022-10-31T17:58:03;13.20;;;4.20;;
39782;SDS011;25462;51.164;17.100;2022-10-31T18:03:19;7.70;;;4.80;;
39782;SDS011;25462;51.164;17.100;2022-10-31T18:08:28;4.70;;;4.30;;
39782;SDS011;25462;51.164;17.100;2022-10-31T18:13:38;7.00;;;3.80;;
39782;SDS011;25462;51.164;17.100;2022-10-31T18:18:42;5.10;;;4.60;;
39782;SDS011;25462;51.164;17.100;2022-10-31T18:23:46;7.90;;;4.30;;
39782;SDS011;25462;51.164;17.100;2022-10-31T18:28:50;4.10;;;3.80;;
39782;SDS011;25462;51.164;17.100;2022-10-31T18:33:57;9.80;;;4.90;;
39782;SDS011;25462;51.164;17.100;2022-10-31T18:39:05;5.00;;;4.50;;
39782;SDS011;25462;51.164;17.100;2022-10-31T18:44:09;6.60;;;5.40;;
39782;SDS011;25462;51.164;17.100;2022-10-31T18:49:16;5.30;;;2.50;;
39782;SDS011;25462;51.164;17.100;2022-10-31T18:54:27;10.70;;;4.60;;
39782;SDS011;25462;51.164;17.100;2022-10-31T18:59:31;5.80;;;4.10;;
39782;SDS011;25462;51.164;17.100;2022-10-31T19:04:36;2.90;;;2.70;;
39782;SDS011;25462;51.164;17.100;2022-10-31T19:09:43;1.00;;;1.00;;
39782;SDS011;25462;51.164;17.100;2022-10-31T19:14:51;2.00;;;1.80;;
39782;SDS011;25462;51.164;17.100;2022-10-31T19:19:55;6.90;;;4.30;;
39782;SDS011;25462;51.164;17.100;2022-10-31T19:24:58;4.90;;;3.00;;
39782;SDS011;25462;51.164;17.100;2022-10-31T19:30:02;4.60;;;2.40;;
39782;SDS011;25462;51.164;17.100;2022-10-31T19:35:08;3.20;;;2.90;;
39782;SDS011;25462;51.164;17.100;2022-10-31T19:40:13;11.30;;;3.50;;
39782;SDS011;25462;51.164;17.100;2022-10-31T19:45:17;5.00;;;3.20;;
39782;SDS011;25462;51.164;17.100;2022-10-31T19:50:21;3.40;;;2.70;;
39782;SDS011;25462;51.164;17.100;2022-10-31T19:55:38;8.60;;;2.90;;
39782;SDS011;25462;51.164;17.100;2022-10-31T20:00:55;2.00;;;1.90;;
39782;SDS011;25462;51.164;17.100;2022-10-31T20:06:36;8.70;;;2.50;;
39782;SDS011;25462;51.164;17.100;2022-10-31T20:12:00;13.20;;;3.30;;
39782;SDS011;25462;51.164;17.100;2022-10-31T20:17:25;6.50;;;5.20;;
39782;SDS011;25462;51.164;17.100;2022-10-31T20:22:34;4.30;;;2.80;;
39782;SDS011;25462;51.164;17.100;2022-10-31T20:27:51;5.80;;;3.70;;
39782;SDS011;25462;51.164;17.100;2022-10-31T20:33:09;9.10;;;2.70;;
39782;SDS011;25462;51.164;17.100;2022-10-31T20:38:24;4.60;;;3.00;;
39782;SDS011;25462;51.164;17.100;2022-10-31T20:43:39;1.50;;;1.40;;
39782;SDS011;25462;51.164;17.100;2022-10-31T20:48:55;2.40;;;2.20;;
39782;SDS011;25462;51.164;17.100;2022-10-31T20:54:17;4.90;;;3.50;;
39782;SDS011;25462;51.164;17.100;2022-10-31T20:59:42;5.90;;;4.10;;
39782;SDS011;25462;51.164;17.100;2022-10-31T21:04:56;23.70;;;3.50;;
39782;SDS011;25462;51.164;17.100;2022-10-31T21:10:13;3.60;;;3.10;;
39782;SDS011;25462;51.164;17.100;2022-10-31T21:15:43;3.30;;;3.00;;
39782;SDS011;25462;51.164;17.100;2022-10-31T21:20:47;5.30;;;4.50;;
39782;SDS011;25462;51.164;17.100;2022-10-31T21:26:17;9.50;;;6.10;;
39782;SDS011;25462;51.164;17.100;2022-10-31T21:31:39;3.80;;;2.90;;
39782;SDS011;25462;51.164;17.100;2022-10-31T21:36:49;6.90;;;4.80;;
39782;SDS011;25462;51.164;17.100;2022-10-31T21:41:53;16.10;;;5.80;;
39782;SDS011;25462;51.164;17.100;2022-10-31T21:46:59;7.10;;;4.40;;
39782;SDS011;25462;51.164;17.100;2022-10-31T21:52:07;6.80;;;4.20;;
39782;SDS011;25462;51.164;17.100;2022-10-31T21:57:11;4.40;;;4.10;;
39782;SDS011;25462;51.164;17.100;2022-10-31T22:02:17;6.70;;;6.10;;
39782;SDS011;25462;51.164;17.100;2022-10-31T22:07:31;4.70;;;3.20;;
39782;SDS011;25462;51.164;17.100;2022-10-31T22:12:41;5.30;;;3.60;;
39782;SDS011;25462;51.164;17.100;2022-10-31T22:17:50;7.30;;;3.80;;
39782;SDS011;25462;51.164;17.100;2022-10-31T22:22:56;15.70;;;8.40;;
39782;SDS011;25462;51.164;17.100;2022-10-31T22:28:00;13.00;;;7.90;;
39782;SDS011;25462;51.164;17.100;2022-10-31T22:33:15;8.20;;;5.70;;
39782;SDS011;25462;51.164;17.100;2022-10-31T22:38:20;6.80;;;5.20;;
39782;SDS011;25462;51.164;17.100;2022-10-31T22:43:23;6.90;;;5.00;;
39782;SDS011;25462;51.164;17.100;2022-10-31T22:48:31;8.80;;;4.20;;
39782;SDS011;25462;51.164;17.100;2022-10-31T22:53:41;4.80;;;4.20;;
39782;SDS011;25462;51.164;17.100;2022-10-31T22:58:51;5.00;;;4.40;;
39782;SDS011;25462;51.164;17.100;2022-10-31T23:03:59;4.70;;;3.60;;
39782;SDS011;25462;51.164;17.100;2022-10-31T23:09:13;5.10;;;4.20;;
39782;SDS011;25462;51.164;17.100;2022-10-31T23:14:29;4.60;;;4.10;;
39782;SDS011;25462;51.164;17.100;2022-10-31T23:19:38;10.10;;;5.50;;
39782;SDS011;25462;51.164;17.100;2022-10-31T23:24:46;14.00;;;5.90;;
39782;SDS011;25462;51.164;17.100;2022-10-31T23:29:55;8.60;;;3.80;;
39782;SDS011;25462;51.164;17.100;2022-10-31T23:35:01;8.10;;;4.90;;
39782;SDS011;25462;51.164;17.100;2022-10-31T23:40:06;4.20;;;2.30;;
39782;SDS011;25462;51.164;17.100;2022-10-31T23:45:19;5.70;;;2.80;;
39782;SDS011;25462;51.164;17.100;2022-10-31T23:50:22;2.40;;;2.10;;
39782;SDS011;25462;51.164;17.100;2022-10-31T23:55:25;2.30;;;2.10;;
